logo
Search for airport 
image banner adimage banner adimage banner ad
image banner ad

YPCC - Cocos (Keeling) Islands

Located in Cocos (Keeling) Island, Cocos (Keeling) Islands

ICAO - YPCC, IATA - CCK

Data provided by Airmate  

General information

Coordinates: S12°11'19" E96°49'50"
Elevation is 10 feet MSL.
 
View others Airports in (unassigned)

Operational data

Special qualification required
Current time UTC:
Current local time:
Weather
METAR: YPCC 231730Z AUTO 13009KT 9999 // NCD 28/24 Q1013 RF00.0/000.0
TAF: TAF YPCC 231700Z 2318/2418 13010KT 9999 SCT025
View NOTAMs / SUP AIP / TFR affecting this airport [VIEW]
Communications frequencies: [VIEW]

Runways:

RWY identifierQFULength (ft)Width (ft)SurfaceLDA (ft)
15149°8009148ASP
33329°8009148ASP

Airport contact information

Address: Cocos (Keeling) Island Cocos (Keeling) Islands

Satellite view of YPCC